KDMA/DMA METAR and TAF weather

Enter ICAO airport designator
Station Type Date Time Source
KDMA METAR 2022/01/23 10:58 UTC NOAA

KDMA 231058Z AUTO 08006KT 10SM CLR 08/04 A3003 RMK AO2 SLP153 T00780044


Station Type Date Time Source
KDMA Decoded METAR 2022/01/23 10:58 UTC NOAA

Davis-Monthan Air Force Base, AZ, United States (KDMA) 32-10N 110-53W
Jan 23, 2022 - 05:58 AM EST / 2022.01.23 1058 UTC
Wind: from the E (080 degrees) at 7 MPH (6 KT):0
Visibility: 10 mile(s):0
Sky conditions: clear
Temperature: 46.0 F (7.8 C)
Dew Point: 39.9 F (4.4 C)
Relative Humidity: 79%
Pressure (altimeter): 30.03 in. Hg (1016 hPa)
ob: KDMA 231058Z AUTO 08006KT 10SM CLR 08/04 A3003 RMK AO2 SLP153 T00780044
cycle: 11

Station Type Date Time Source
KDMA TAF 2022/01/23 07:53 UTC NOAA

TAF
AMD KDMA 230730Z 2307/2412 07009KT 9999 SCT070 QNH3004INS
TEMPO 2307/2310 -SHRA
BECMG 2312/2313 10007KT 9999 SCT070 BKN100 QNH3006INS
BECMG 2318/2319 08009KT 9999 SCT070 QNH3004INS
BECMG 2403/2404 13007KT 9999 FEW080 QNH3009INS TX15/2321Z TN04/2313Z

Example: see airport list